createdAt,value
2018-12-23T00:01:29.684Z,84.60
2018-12-23T00:03:59.363Z,84.50
2018-12-23T00:06:28.927Z,85.10
2018-12-23T00:08:58.505Z,84.80
2018-12-23T00:11:28.033Z,85.60
2018-12-23T00:13:57.375Z,85.30
2018-12-23T00:16:26.720Z,85.50
2018-12-23T00:18:56.795Z,86.50
2018-12-23T00:21:26.236Z,86.40
2018-12-23T00:23:55.757Z,86.40
2018-12-23T00:26:25.204Z,86.90
2018-12-23T00:28:54.556Z,86.00
2018-12-23T00:31:23.864Z,86.40
2018-12-23T00:33:53.252Z,86.30
2018-12-23T00:36:22.696Z,87.30
2018-12-23T00:38:52.024Z,87.80
2018-12-23T00:41:21.474Z,87.80
2018-12-23T00:43:50.832Z,88.00
2018-12-23T00:46:20.906Z,88.30
2018-12-23T00:48:50.429Z,87.80
2018-12-23T00:51:19.858Z,87.50
2018-12-23T00:53:49.236Z,87.30
2018-12-23T00:56:18.668Z,87.60
2018-12-23T00:58:48.310Z,87.10
2018-12-23T01:01:17.633Z,87.00
2018-12-23T01:03:47.065Z,87.40
2018-12-23T01:06:16.427Z,87.80
2018-12-23T01:08:46.269Z,88.20
2018-12-23T01:11:15.709Z,88.00
2018-12-23T01:13:45.179Z,88.30
2018-12-23T01:16:15.126Z,88.50
2018-12-23T01:18:44.407Z,88.10
2018-12-23T01:21:13.909Z,87.90
2018-12-23T01:23:43.364Z,87.90
2018-12-23T01:26:12.847Z,88.10
2018-12-23T01:32:36.337Z,88.50
2018-12-23T01:35:06.066Z,87.90
2018-12-23T01:37:35.468Z,88.30
2018-12-23T01:40:05.633Z,88.10
2018-12-23T01:42:35.144Z,88.60
2018-12-23T01:45:04.808Z,88.40
2018-12-23T01:47:34.158Z,88.60
2018-12-23T01:50:03.500Z,88.50
2018-12-23T01:52:33.800Z,88.90
2018-12-23T01:55:03.218Z,89.10
2018-12-23T01:57:32.554Z,88.50
2018-12-23T02:00:02.024Z,88.90
2018-12-23T02:02:31.770Z,90.00
2018-12-23T02:05:01.291Z,89.10
2018-12-23T02:07:30.689Z,89.10
2018-12-23T02:10:00.044Z,89.50
2018-12-23T02:12:31.108Z,90.30
2018-12-23T02:15:00.438Z,90.10
2018-12-23T02:17:30.040Z,90.10
2018-12-23T02:19:59.416Z,90.60
2018-12-23T02:22:28.830Z,90.90
2018-12-23T02:24:58.246Z,91.20
2018-12-23T02:27:27.602Z,91.30
2018-12-23T02:29:57.743Z,91.10
2018-12-23T02:32:27.273Z,91.20
2018-12-23T02:34:56.627Z,91.40
2018-12-23T02:37:26.077Z,91.50
2018-12-23T02:39:55.420Z,91.70
2018-12-23T02:42:24.785Z,92.00
2018-12-23T02:44:54.222Z,92.00
2018-12-23T02:47:23.669Z,92.30
2018-12-23T02:49:53.183Z,92.40
2018-12-23T02:52:22.635Z,92.40
2018-12-23T02:54:51.989Z,92.40
2018-12-23T02:57:21.462Z,92.50
2018-12-23T02:59:50.823Z,92.60
2018-12-23T03:02:20.237Z,92.80
2018-12-23T03:04:49.568Z,92.90
2018-12-23T03:07:18.967Z,93.00
2018-12-23T03:09:48.431Z,93.00
2018-12-23T03:12:17.885Z,93.00
2018-12-23T03:14:47.268Z,93.20
2018-12-23T03:17:17.419Z,93.30
2018-12-23T03:19:46.885Z,93.10
2018-12-23T03:22:16.307Z,92.80
2018-12-23T03:24:45.772Z,93.00
2018-12-23T03:27:15.232Z,92.80
2018-12-23T03:29:44.706Z,92.70
2018-12-23T03:32:14.024Z,92.50
2018-12-23T03:34:44.157Z,92.90
2018-12-23T03:37:13.467Z,92.80
2018-12-23T03:39:43.559Z,93.00
2018-12-23T03:42:12.897Z,93.00
2018-12-23T03:44:42.215Z,93.20
2018-12-23T03:47:11.593Z,93.30
2018-12-23T03:49:42.673Z,93.30
2018-12-23T03:52:16.063Z,93.30
2018-12-23T03:54:45.407Z,93.40
2018-12-23T03:57:14.835Z,93.40
2018-12-23T03:59:44.135Z,93.50
2018-12-23T04:02:13.474Z,93.30
2018-12-23T04:04:43.015Z,93.30
2018-12-23T04:07:12.464Z,93.40
2018-12-23T04:09:41.936Z,93.50
2018-12-23T04:12:11.351Z,93.60
2018-12-23T04:14:40.886Z,93.60
2018-12-23T04:17:10.396Z,93.60
2018-12-23T04:19:39.756Z,93.60
2018-12-23T04:22:09.208Z,93.70
2018-12-23T04:24:38.499Z,93.80
2018-12-23T04:27:07.853Z,94.00
2018-12-23T04:29:37.158Z,93.70
2018-12-23T04:32:07.637Z,93.60
2018-12-23T04:34:37.037Z,93.50
2018-12-23T04:37:06.378Z,93.60
2018-12-23T04:39:35.727Z,93.60
2018-12-23T04:42:05.186Z,93.60
2018-12-23T04:44:34.641Z,93.60
2018-12-23T04:47:03.998Z,93.60
2018-12-23T04:49:33.381Z,93.60
2018-12-23T04:52:02.676Z,93.60
2018-12-23T04:54:31.985Z,93.60
2018-12-23T04:57:01.346Z,93.60
2018-12-23T04:59:30.622Z,93.60
2018-12-23T05:01:59.977Z,93.60
2018-12-23T05:04:29.341Z,93.60
2018-12-23T05:06:58.640Z,93.60
2018-12-23T05:09:28.011Z,93.40
2018-12-23T05:11:57.319Z,93.50
2018-12-23T05:14:26.645Z,93.40
2018-12-23T05:16:55.931Z,93.50
2018-12-23T05:19:25.205Z,93.60
2018-12-23T05:21:55.559Z,93.40
2018-12-23T05:24:24.916Z,93.40
2018-12-23T05:26:54.348Z,93.50
2018-12-23T05:29:23.856Z,93.50
2018-12-23T05:31:53.286Z,93.50
2018-12-23T05:34:22.697Z,93.50
2018-12-23T05:36:52.850Z,93.40
2018-12-23T05:39:22.256Z,93.60
2018-12-23T05:41:51.631Z,93.60
2018-12-23T05:44:20.908Z,93.50
2018-12-23T05:46:50.290Z,93.60
2018-12-23T05:49:19.658Z,93.60
2018-12-23T05:51:49.021Z,93.70
2018-12-23T05:54:19.154Z,93.70
2018-12-23T05:56:48.416Z,93.60
2018-12-23T05:59:17.793Z,93.70
2018-12-23T06:01:47.202Z,93.60
2018-12-23T06:04:16.625Z,93.60
2018-12-23T06:06:46.017Z,93.80
2018-12-23T06:09:16.101Z,93.80
2018-12-23T06:11:45.502Z,93.70
2018-12-23T06:14:14.837Z,93.80
2018-12-23T06:16:44.206Z,93.70
2018-12-23T06:19:13.574Z,93.70
2018-12-23T06:21:42.870Z,93.70
2018-12-23T06:24:12.351Z,93.60
2018-12-23T06:26:41.697Z,93.60
2018-12-23T06:29:11.063Z,93.40
2018-12-23T06:31:40.407Z,93.50
2018-12-23T06:34:09.809Z,93.60
2018-12-23T06:36:39.235Z,93.50
2018-12-23T06:39:08.647Z,93.50
2018-12-23T06:41:38.092Z,93.50
2018-12-23T06:44:07.677Z,93.60
2018-12-23T06:46:37.665Z,93.60
2018-12-23T06:49:07.143Z,93.50
2018-12-23T06:51:37.111Z,93.50
2018-12-23T06:54:06.385Z,93.30
2018-12-23T06:56:35.799Z,93.30
2018-12-23T06:59:05.715Z,93.30
2018-12-23T07:01:35.041Z,93.20
2018-12-23T07:04:04.429Z,93.20
2018-12-23T07:06:33.996Z,93.30
2018-12-23T07:09:04.483Z,93.20
2018-12-23T07:11:33.783Z,93.30
2018-12-23T07:14:03.162Z,93.30
2018-12-23T07:16:32.597Z,93.30
2018-12-23T07:19:01.917Z,93.30
2018-12-23T07:21:32.043Z,93.30
2018-12-23T07:24:01.440Z,93.30
2018-12-23T07:26:30.916Z,93.30
2018-12-23T07:29:00.294Z,93.30
2018-12-23T07:31:29.656Z,93.30
2018-12-23T07:33:59.627Z,93.30
2018-12-23T07:36:28.980Z,93.40
2018-12-23T07:39:06.019Z,93.40
2018-12-23T07:41:35.404Z,93.40
2018-12-23T07:44:05.424Z,93.50
2018-12-23T07:46:34.772Z,93.50
2018-12-23T07:49:04.186Z,93.50
2018-12-23T07:51:33.580Z,93.40
2018-12-23T07:54:03.036Z,93.30
2018-12-23T07:56:32.470Z,93.40
2018-12-23T07:59:01.793Z,93.40
2018-12-23T08:01:31.228Z,93.30
2018-12-23T08:04:01.186Z,93.30
2018-12-23T08:06:30.542Z,93.30
2018-12-23T08:09:00.547Z,93.30
2018-12-23T08:11:29.852Z,93.50
2018-12-23T08:13:59.592Z,93.40
2018-12-23T08:16:29.036Z,93.50
2018-12-23T08:18:58.492Z,93.30
2018-12-23T08:21:27.840Z,93.10
2018-12-23T08:23:57.800Z,93.10
2018-12-23T08:26:27.280Z,92.80
2018-12-23T08:28:57.388Z,92.70
2018-12-23T08:31:27.224Z,92.70
2018-12-23T08:33:56.720Z,92.80
2018-12-23T08:36:26.159Z,92.80
2018-12-23T08:38:56.067Z,93.10
2018-12-23T08:41:25.672Z,93.10
2018-12-23T08:43:55.157Z,93.00
2018-12-23T08:46:24.580Z,93.00
2018-12-23T08:48:53.965Z,93.00
2018-12-23T08:51:24.061Z,92.90
2018-12-23T08:53:53.469Z,93.00
2018-12-23T08:56:22.815Z,93.00
2018-12-23T08:58:52.161Z,93.00
2018-12-23T09:01:21.680Z,93.00
2018-12-23T09:03:51.031Z,93.00
2018-12-23T09:06:20.335Z,93.00
2018-12-23T09:08:49.620Z,93.00
2018-12-23T09:11:18.950Z,93.00
2018-12-23T09:13:48.274Z,93.00
2018-12-23T09:16:18.048Z,92.80
2018-12-23T09:18:48.589Z,92.90
2018-12-23T09:21:17.935Z,93.00
2018-12-23T09:23:47.218Z,93.20
2018-12-23T09:26:16.678Z,93.20
2018-12-23T09:28:45.975Z,93.10
2018-12-23T09:31:15.284Z,93.20
2018-12-23T09:33:44.688Z,92.90
2018-12-23T09:36:13.954Z,93.10
2018-12-23T09:38:43.380Z,93.20
2018-12-23T09:41:12.748Z,93.30
2018-12-23T09:43:42.170Z,93.10
2018-12-23T09:46:11.807Z,93.10
2018-12-23T09:48:41.417Z,93.30
2018-12-23T09:51:11.024Z,93.20
2018-12-23T09:53:40.456Z,93.30
2018-12-23T09:56:09.768Z,93.40
2018-12-23T09:58:39.103Z,93.00
2018-12-23T10:01:08.387Z,93.30
2018-12-23T10:03:44.372Z,93.30
2018-12-23T10:06:13.712Z,93.30
2018-12-23T10:08:43.307Z,93.30
2018-12-23T10:11:12.834Z,93.40
2018-12-23T10:13:42.585Z,93.40
2018-12-23T10:16:11.921Z,93.40
2018-12-23T10:18:41.380Z,93.40
2018-12-23T10:21:10.715Z,93.60
2018-12-23T10:23:40.011Z,93.40
2018-12-23T10:26:09.359Z,93.40
2018-12-23T10:28:38.722Z,93.40
2018-12-23T10:31:08.253Z,93.30
2018-12-23T10:33:37.698Z,93.50
2018-12-23T10:36:07.006Z,93.40
2018-12-23T10:38:36.529Z,93.40
2018-12-23T10:41:05.967Z,93.40
2018-12-23T10:43:35.500Z,93.20
2018-12-23T10:46:04.860Z,93.40
2018-12-23T10:48:34.193Z,93.40
2018-12-23T10:51:04.306Z,93.20
2018-12-23T10:53:33.852Z,93.20
2018-12-23T10:56:03.440Z,93.00
2018-12-23T10:58:32.901Z,93.00
2018-12-23T11:01:02.344Z,93.00
2018-12-23T11:03:31.714Z,93.00
2018-12-23T11:06:01.792Z,92.70
2018-12-23T11:08:31.196Z,91.90
2018-12-23T11:11:00.957Z,91.90
2018-12-23T11:13:30.249Z,92.30
2018-12-23T11:15:59.523Z,92.00
2018-12-23T11:18:28.987Z,92.10
2018-12-23T11:20:58.404Z,91.90
2018-12-23T11:23:27.770Z,92.50
2018-12-23T11:25:57.128Z,92.40
2018-12-23T11:28:26.424Z,92.40
2018-12-23T11:30:55.719Z,92.70
2018-12-23T11:33:24.969Z,93.00
2018-12-23T11:35:54.261Z,93.20
2018-12-23T11:38:23.605Z,93.10
2018-12-23T11:40:52.892Z,93.30
2018-12-23T11:43:22.197Z,93.20
2018-12-23T11:45:51.466Z,93.30
2018-12-23T11:48:21.009Z,93.20
2018-12-23T11:50:50.309Z,93.30
2018-12-23T11:53:19.676Z,93.20
2018-12-23T11:55:48.899Z,92.90
2018-12-23T11:58:18.176Z,93.10
2018-12-23T12:00:47.432Z,93.20
2018-12-23T12:03:16.745Z,93.10
2018-12-23T12:05:46.152Z,93.20
2018-12-23T12:08:16.266Z,93.40
2018-12-23T12:10:46.068Z,93.30
2018-12-23T12:13:15.384Z,93.50
2018-12-23T12:15:44.745Z,93.50
2018-12-23T12:18:14.355Z,93.50
2018-12-23T12:21:17.855Z,94.10
2018-12-23T12:23:49.132Z,93.80
2018-12-23T12:26:20.600Z,93.50
2018-12-23T12:28:51.792Z,93.40
2018-12-23T12:31:23.474Z,93.40
2018-12-23T12:33:55.130Z,93.20
2018-12-23T12:36:26.568Z,93.20
2018-12-23T12:38:57.564Z,92.90
2018-12-23T12:41:28.840Z,93.00
2018-12-23T12:43:59.774Z,92.90
2018-12-23T12:46:31.467Z,92.70
2018-12-23T12:49:02.467Z,92.70
2018-12-23T12:51:33.637Z,92.50
2018-12-23T12:54:04.927Z,92.40
2018-12-23T12:56:35.862Z,92.20
2018-12-23T12:59:07.258Z,92.40
2018-12-23T13:01:38.965Z,92.00
2018-12-23T13:04:09.984Z,92.00
2018-12-23T13:06:40.945Z,92.00
2018-12-23T13:09:11.933Z,91.90
2018-12-23T13:11:50.496Z,91.90
2018-12-23T13:14:16.959Z,91.90
2018-12-23T13:16:48.576Z,91.90
2018-12-23T13:19:20.116Z,91.90
2018-12-23T13:21:51.708Z,91.90
2018-12-23T13:24:23.046Z,91.70
2018-12-23T13:26:54.775Z,91.30
2018-12-23T13:29:26.301Z,91.20
2018-12-23T13:31:57.762Z,91.20
2018-12-23T13:34:28.948Z,91.20
2018-12-23T13:37:00.154Z,91.10
2018-12-23T13:39:31.533Z,90.80
2018-12-23T13:42:27.348Z,90.80
2018-12-23T13:45:53.452Z,90.70
2018-12-23T13:48:55.455Z,90.60
2018-12-23T13:52:04.972Z,90.90
2018-12-23T13:55:21.780Z,90.60
2018-12-23T13:58:21.452Z,90.50
2018-12-23T14:00:57.616Z,90.50
2018-12-23T14:04:05.485Z,90.60
2018-12-23T14:07:28.933Z,90.50
2018-12-23T14:10:37.020Z,90.60
2018-12-23T14:13:08.110Z,90.50
2018-12-23T14:15:39.368Z,90.60
2018-12-23T14:18:10.397Z,90.60
2018-12-23T14:20:41.859Z,90.60
2018-12-23T14:23:12.837Z,90.60
2018-12-23T14:25:44.143Z,90.60
2018-12-23T14:28:15.795Z,90.70
2018-12-23T14:30:46.958Z,90.70
2018-12-23T14:33:18.575Z,90.70
2018-12-23T14:35:49.923Z,90.70
2018-12-23T14:38:21.328Z,90.70
2018-12-23T14:40:52.510Z,90.80
2018-12-23T14:43:23.815Z,90.80
2018-12-23T14:45:55.343Z,90.80
2018-12-23T14:48:26.521Z,90.90
2018-12-23T14:50:57.458Z,90.90
2018-12-23T14:53:28.642Z,90.90
2018-12-23T14:55:59.806Z,91.00
2018-12-23T14:58:31.113Z,91.00
2018-12-23T15:01:02.164Z,91.10
2018-12-23T15:03:33.530Z,91.10
2018-12-23T15:06:04.870Z,91.20
2018-12-23T15:08:36.124Z,91.20
2018-12-23T15:11:07.362Z,91.20
2018-12-23T15:13:38.471Z,91.20
2018-12-23T15:16:09.559Z,91.20
2018-12-23T15:18:42.850Z,91.30
2018-12-23T15:21:14.200Z,91.30
2018-12-23T15:23:45.247Z,91.40
2018-12-23T15:26:16.291Z,91.40
2018-12-23T15:28:47.641Z,91.40
2018-12-23T15:31:18.911Z,91.50
2018-12-23T15:33:50.031Z,91.40
2018-12-23T15:36:22.877Z,91.40
2018-12-23T15:38:53.943Z,91.30
2018-12-23T15:41:24.827Z,91.20
2018-12-23T15:43:56.057Z,91.20
2018-12-23T15:46:26.947Z,91.30
2018-12-23T15:48:58.323Z,91.30
2018-12-23T15:51:29.196Z,91.30
2018-12-23T15:54:00.434Z,91.30
2018-12-23T15:56:31.829Z,91.30
2018-12-23T15:59:03.034Z,91.30
2018-12-23T16:01:34.100Z,91.30
2018-12-23T16:04:05.272Z,91.30
2018-12-23T16:06:36.409Z,91.30
2018-12-23T16:09:09.090Z,91.30
2018-12-23T16:11:40.525Z,91.20
2018-12-23T16:14:11.574Z,91.20
2018-12-23T16:16:42.874Z,91.20
2018-12-23T16:19:14.242Z,91.10
2018-12-23T16:21:45.519Z,91.20
2018-12-23T16:24:16.917Z,91.20
2018-12-23T16:26:48.008Z,91.20
2018-12-23T16:29:19.012Z,91.10
2018-12-23T16:31:50.282Z,91.10
2018-12-23T16:34:21.614Z,91.10
2018-12-23T16:36:52.578Z,91.10
2018-12-23T16:39:23.690Z,91.00
2018-12-23T16:41:54.912Z,91.00
2018-12-23T16:44:25.934Z,91.00
2018-12-23T16:46:56.988Z,91.00
2018-12-23T16:49:28.167Z,91.00
2018-12-23T16:51:59.455Z,91.00
2018-12-23T16:54:30.643Z,90.90
2018-12-23T16:57:01.844Z,90.90
2018-12-23T16:59:33.141Z,90.90
2018-12-23T17:02:04.727Z,91.00
2018-12-23T17:04:35.633Z,91.00
2018-12-23T17:07:06.609Z,90.90
2018-12-23T17:09:37.509Z,90.80
2018-12-23T17:12:08.551Z,90.90
2018-12-23T17:14:39.571Z,91.00
2018-12-23T17:17:10.648Z,91.00
2018-12-23T17:19:41.714Z,91.10
2018-12-23T17:22:12.820Z,91.30
2018-12-23T17:24:44.204Z,91.60
2018-12-23T17:27:15.363Z,91.80
2018-12-23T17:29:46.563Z,91.80
2018-12-23T17:32:17.887Z,92.00
2018-12-23T17:34:48.951Z,92.30
2018-12-23T17:37:19.923Z,92.40
2018-12-23T17:39:50.904Z,92.40
2018-12-23T17:42:22.116Z,92.50
2018-12-23T17:44:53.389Z,92.70
2018-12-23T17:47:24.582Z,92.90
2018-12-23T17:49:55.675Z,93.10
2018-12-23T17:52:26.841Z,93.00
2018-12-23T17:54:58.069Z,93.20
2018-12-23T17:57:29.160Z,93.10
2018-12-23T18:00:00.172Z,93.20
2018-12-23T18:02:31.567Z,93.20
2018-12-23T18:05:02.601Z,93.20
2018-12-23T18:07:33.671Z,93.20
2018-12-23T18:10:04.913Z,93.20
2018-12-23T18:12:36.019Z,93.10
2018-12-23T18:15:08.064Z,93.00
2018-12-23T18:17:39.203Z,93.00
2018-12-23T18:20:10.345Z,93.00
2018-12-23T18:22:41.796Z,93.00
2018-12-23T18:25:13.348Z,92.90
2018-12-23T18:27:44.316Z,92.90
2018-12-23T18:30:15.293Z,93.00
2018-12-23T18:32:46.574Z,93.00
2018-12-23T18:35:17.705Z,93.00
2018-12-23T18:37:48.786Z,93.00
2018-12-23T18:40:20.311Z,93.10
2018-12-23T18:42:51.470Z,93.30
2018-12-23T18:45:22.885Z,93.30
2018-12-23T18:47:54.460Z,93.40
2018-12-23T18:50:26.063Z,93.50
2018-12-23T18:52:57.488Z,93.60
2018-12-23T18:55:30.914Z,93.60
2018-12-23T18:58:02.270Z,93.60
2018-12-23T19:00:33.580Z,93.60
2018-12-23T19:03:05.386Z,93.70
2018-12-23T19:05:36.512Z,93.60
2018-12-23T19:08:15.083Z,93.60
2018-12-23T19:11:12.041Z,93.70
2018-12-23T19:14:26.625Z,93.60
2018-12-23T19:17:38.206Z,93.60
2018-12-23T19:20:57.936Z,93.60
2018-12-23T19:24:05.617Z,93.70
2018-12-23T19:27:17.286Z,93.80
2018-12-23T19:30:13.269Z,93.80
2018-12-23T19:32:56.955Z,93.90
2018-12-23T19:36:07.517Z,93.90
2018-12-23T19:39:02.115Z,94.20
2018-12-23T19:42:22.181Z,94.00
2018-12-23T19:45:23.370Z,94.00
2018-12-23T19:48:22.275Z,94.10
2018-12-23T19:51:34.544Z,94.20
2018-12-23T19:54:31.969Z,94.10
2018-12-23T19:57:58.675Z,94.10
2018-12-23T20:01:04.690Z,94.10
2018-12-23T20:03:52.617Z,94.10
2018-12-23T20:07:09.506Z,94.30
2018-12-23T20:10:32.132Z,94.20
2018-12-23T20:13:42.631Z,94.20
2018-12-23T20:16:40.333Z,94.20
2018-12-23T20:20:03.700Z,94.10
2018-12-23T20:23:17.014Z,94.10
2018-12-23T20:26:29.194Z,94.10
2018-12-23T20:29:46.860Z,94.10
2018-12-23T20:32:43.511Z,94.10
2018-12-23T20:35:52.814Z,94.10
2018-12-23T20:38:59.624Z,94.00
2018-12-23T20:42:33.118Z,94.00
2018-12-23T20:45:47.793Z,94.00
2018-12-23T20:48:43.452Z,94.00
2018-12-23T20:51:57.393Z,93.90
2018-12-23T20:55:05.797Z,94.00
2018-12-23T20:57:59.690Z,94.00
2018-12-23T21:01:20.759Z,94.00
2018-12-23T21:04:25.596Z,93.90
2018-12-23T21:07:27.473Z,94.00
2018-12-23T21:10:32.856Z,94.00
2018-12-23T21:13:34.828Z,94.00
2018-12-23T21:16:55.582Z,94.00
2018-12-23T21:20:09.075Z,93.90
2018-12-23T21:23:20.479Z,93.90
2018-12-23T21:26:50.816Z,94.00
2018-12-23T21:29:39.549Z,93.90
2018-12-23T21:32:30.580Z,93.90
2018-12-23T21:35:41.966Z,93.80
2018-12-23T21:38:37.642Z,93.80
2018-12-23T21:41:54.581Z,93.80
2018-12-23T21:44:49.402Z,93.80
2018-12-23T21:47:33.317Z,93.80
2018-12-23T21:50:42.151Z,93.80
2018-12-23T21:53:57.417Z,93.70
2018-12-23T21:57:05.386Z,93.60
2018-12-23T22:00:05.145Z,93.60
2018-12-23T22:03:04.867Z,93.60
2018-12-23T22:06:04.649Z,93.60
2018-12-23T22:09:11.478Z,93.60
2018-12-23T22:11:59.537Z,94.80
2018-12-23T22:14:30.715Z,94.10
2018-12-23T22:17:02.141Z,93.60
2018-12-23T22:19:33.927Z,93.50
2018-12-23T22:22:05.509Z,93.50
2018-12-23T22:24:36.601Z,93.50
2018-12-23T22:27:07.819Z,93.50
2018-12-23T22:29:39.031Z,93.40
2018-12-23T22:32:10.433Z,93.40
2018-12-23T22:34:41.660Z,93.30
2018-12-23T22:37:12.848Z,93.30
2018-12-23T22:39:44.075Z,93.30
2018-12-23T22:42:15.119Z,93.20
2018-12-23T22:44:46.221Z,93.20
2018-12-23T22:47:17.423Z,93.20
2018-12-23T22:49:48.445Z,93.20
2018-12-23T22:52:19.520Z,93.20
2018-12-23T22:54:50.461Z,93.20
2018-12-23T22:57:21.499Z,93.30
2018-12-23T22:59:52.589Z,93.50
2018-12-23T23:02:23.674Z,93.20
2018-12-23T23:04:55.089Z,93.30
2018-12-23T23:07:26.058Z,93.30
2018-12-23T23:09:57.237Z,93.10
2018-12-23T23:12:28.577Z,93.20
2018-12-23T23:15:00.009Z,93.10
2018-12-23T23:17:31.376Z,93.10
2018-12-23T23:20:02.365Z,93.00
2018-12-23T23:22:33.773Z,93.10
2018-12-23T23:25:04.920Z,93.00
2018-12-23T23:27:36.103Z,93.00
2018-12-23T23:30:07.322Z,93.00
2018-12-23T23:32:38.437Z,93.00
2018-12-23T23:35:09.371Z,92.90
2018-12-23T23:37:40.378Z,93.00
2018-12-23T23:40:11.330Z,93.00
2018-12-23T23:42:42.305Z,93.10
2018-12-23T23:45:13.313Z,93.00
2018-12-23T23:47:44.199Z,93.10
2018-12-23T23:50:15.181Z,93.10
2018-12-23T23:52:46.791Z,93.10
2018-12-23T23:55:18.191Z,93.10
2018-12-23T23:57:49.541Z,93.10
